sensor_id;sensor_type;location;lat;lon;timestamp;P1;durP1;ratioP1;P2;durP2;ratioP2
77099;SDS011;66602;48.922;2.414;2023-04-30T00:02:19;25.15;;;15.65;;
77099;SDS011;66602;48.922;2.414;2023-04-30T00:04:45;23.05;;;14.27;;
77099;SDS011;66602;48.922;2.414;2023-04-30T00:07:10;24.13;;;14.45;;
77099;SDS011;66602;48.922;2.414;2023-04-30T00:09:36;26.17;;;15.10;;
77099;SDS011;66602;48.922;2.414;2023-04-30T00:12:01;26.23;;;15.57;;
77099;SDS011;66602;48.922;2.414;2023-04-30T00:14:27;22.48;;;14.32;;
77099;SDS011;66602;48.922;2.414;2023-04-30T00:16:53;23.90;;;14.98;;
77099;SDS011;66602;48.922;2.414;2023-04-30T00:19:18;23.35;;;15.20;;
77099;SDS011;66602;48.922;2.414;2023-04-30T00:21:43;29.20;;;15.95;;
77099;SDS011;66602;48.922;2.414;2023-04-30T00:24:10;20.98;;;13.85;;
77099;SDS011;66602;48.922;2.414;2023-04-30T00:26:35;24.23;;;14.52;;
77099;SDS011;66602;48.922;2.414;2023-04-30T00:29:00;19.88;;;14.10;;
77099;SDS011;66602;48.922;2.414;2023-04-30T00:31:26;27.63;;;16.00;;
77099;SDS011;66602;48.922;2.414;2023-04-30T00:33:52;25.75;;;15.57;;
77099;SDS011;66602;48.922;2.414;2023-04-30T00:36:18;22.50;;;15.80;;
77099;SDS011;66602;48.922;2.414;2023-04-30T00:38:43;25.80;;;14.40;;
77099;SDS011;66602;48.922;2.414;2023-04-30T00:41:09;26.67;;;15.05;;
77099;SDS011;66602;48.922;2.414;2023-04-30T00:43:34;21.38;;;15.52;;
77099;SDS011;66602;48.922;2.414;2023-04-30T00:46:00;25.25;;;16.98;;
77099;SDS011;66602;48.922;2.414;2023-04-30T00:48:27;25.17;;;16.73;;
77099;SDS011;66602;48.922;2.414;2023-04-30T00:50:53;21.60;;;15.48;;
77099;SDS011;66602;48.922;2.414;2023-04-30T00:53:18;25.42;;;16.45;;
77099;SDS011;66602;48.922;2.414;2023-04-30T00:55:44;35.47;;;17.55;;
77099;SDS011;66602;48.922;2.414;2023-04-30T00:58:10;22.25;;;16.45;;
77099;SDS011;66602;48.922;2.414;2023-04-30T01:00:35;27.27;;;15.50;;
77099;SDS011;66602;48.922;2.414;2023-04-30T01:03:01;21.58;;;15.13;;
77099;SDS011;66602;48.922;2.414;2023-04-30T01:05:26;25.52;;;17.08;;
77099;SDS011;66602;48.922;2.414;2023-04-30T01:07:55;20.83;;;14.35;;
77099;SDS011;66602;48.922;2.414;2023-04-30T01:15:56;27.40;;;16.42;;
77099;SDS011;66602;48.922;2.414;2023-04-30T01:18:27;26.98;;;16.00;;
77099;SDS011;66602;48.922;2.414;2023-04-30T01:21:04;23.02;;;14.88;;
77099;SDS011;66602;48.922;2.414;2023-04-30T01:29:17;23.83;;;14.68;;
77099;SDS011;66602;48.922;2.414;2023-04-30T01:31:44;23.30;;;14.35;;
77099;SDS011;66602;48.922;2.414;2023-04-30T01:34:10;23.65;;;15.90;;
77099;SDS011;66602;48.922;2.414;2023-04-30T01:39:21;29.33;;;16.52;;
77099;SDS011;66602;48.922;2.414;2023-04-30T01:44:47;34.92;;;17.25;;
77099;SDS011;66602;48.922;2.414;2023-04-30T01:52:58;26.48;;;15.90;;
77099;SDS011;66602;48.922;2.414;2023-04-30T01:55:39;23.35;;;14.90;;
77099;SDS011;66602;48.922;2.414;2023-04-30T01:58:11;26.63;;;16.98;;
77099;SDS011;66602;48.922;2.414;2023-04-30T02:00:39;31.85;;;16.80;;
77099;SDS011;66602;48.922;2.414;2023-04-30T02:03:05;19.58;;;14.15;;
77099;SDS011;66602;48.922;2.414;2023-04-30T02:05:31;26.80;;;16.10;;
77099;SDS011;66602;48.922;2.414;2023-04-30T02:07:58;20.73;;;15.88;;
77099;SDS011;66602;48.922;2.414;2023-04-30T02:10:24;30.30;;;15.88;;
77099;SDS011;66602;48.922;2.414;2023-04-30T02:12:51;23.67;;;15.63;;
77099;SDS011;66602;48.922;2.414;2023-04-30T02:15:17;25.60;;;15.07;;
77099;SDS011;66602;48.922;2.414;2023-04-30T02:17:43;32.67;;;16.73;;
77099;SDS011;66602;48.922;2.414;2023-04-30T02:20:08;26.00;;;15.43;;
77099;SDS011;66602;48.922;2.414;2023-04-30T02:22:35;26.15;;;15.55;;
77099;SDS011;66602;48.922;2.414;2023-04-30T02:25:01;21.50;;;15.10;;
77099;SDS011;66602;48.922;2.414;2023-04-30T02:27:28;18.10;;;13.60;;
77099;SDS011;66602;48.922;2.414;2023-04-30T02:29:55;25.45;;;15.90;;
77099;SDS011;66602;48.922;2.414;2023-04-30T02:32:20;25.27;;;14.57;;
77099;SDS011;66602;48.922;2.414;2023-04-30T02:34:46;19.70;;;14.15;;
77099;SDS011;66602;48.922;2.414;2023-04-30T02:37:12;22.35;;;14.88;;
77099;SDS011;66602;48.922;2.414;2023-04-30T02:39:37;21.55;;;14.25;;
77099;SDS011;66602;48.922;2.414;2023-04-30T02:42:03;23.17;;;15.68;;
77099;SDS011;66602;48.922;2.414;2023-04-30T02:44:30;21.05;;;14.52;;
77099;SDS011;66602;48.922;2.414;2023-04-30T02:46:56;25.40;;;14.80;;
77099;SDS011;66602;48.922;2.414;2023-04-30T02:49:21;17.58;;;13.25;;
77099;SDS011;66602;48.922;2.414;2023-04-30T02:51:48;16.70;;;13.32;;
77099;SDS011;66602;48.922;2.414;2023-04-30T02:54:13;20.30;;;14.18;;
77099;SDS011;66602;48.922;2.414;2023-04-30T02:56:39;25.50;;;15.27;;
77099;SDS011;66602;48.922;2.414;2023-04-30T02:59:05;25.60;;;14.98;;
77099;SDS011;66602;48.922;2.414;2023-04-30T03:01:31;25.67;;;15.20;;
77099;SDS011;66602;48.922;2.414;2023-04-30T03:03:56;22.48;;;15.18;;
77099;SDS011;66602;48.922;2.414;2023-04-30T03:06:25;22.60;;;15.68;;
77099;SDS011;66602;48.922;2.414;2023-04-30T03:08:50;25.77;;;15.73;;
77099;SDS011;66602;48.922;2.414;2023-04-30T03:11:16;31.92;;;17.35;;
77099;SDS011;66602;48.922;2.414;2023-04-30T03:13:42;26.50;;;15.95;;
77099;SDS011;66602;48.922;2.414;2023-04-30T03:16:07;23.75;;;14.82;;
77099;SDS011;66602;48.922;2.414;2023-04-30T03:18:33;21.00;;;15.63;;
77099;SDS011;66602;48.922;2.414;2023-04-30T03:20:58;21.77;;;15.05;;
77099;SDS011;66602;48.922;2.414;2023-04-30T03:23:27;32.13;;;16.95;;
77099;SDS011;66602;48.922;2.414;2023-04-30T03:25:53;29.05;;;17.55;;
77099;SDS011;66602;48.922;2.414;2023-04-30T03:28:18;27.63;;;16.00;;
77099;SDS011;66602;48.922;2.414;2023-04-30T03:30:45;35.38;;;18.30;;
77099;SDS011;66602;48.922;2.414;2023-04-30T03:33:10;32.08;;;17.30;;
77099;SDS011;66602;48.922;2.414;2023-04-30T03:35:36;30.50;;;17.85;;
77099;SDS011;66602;48.922;2.414;2023-04-30T03:38:01;31.58;;;18.83;;
77099;SDS011;66602;48.922;2.414;2023-04-30T03:40:27;36.75;;;17.65;;
77099;SDS011;66602;48.922;2.414;2023-04-30T03:42:52;38.72;;;20.63;;
77099;SDS011;66602;48.922;2.414;2023-04-30T03:45:18;34.22;;;18.38;;
77099;SDS011;66602;48.922;2.414;2023-04-30T03:47:44;30.08;;;17.75;;
77099;SDS011;66602;48.922;2.414;2023-04-30T03:50:09;31.73;;;18.10;;
77099;SDS011;66602;48.922;2.414;2023-04-30T03:52:35;31.83;;;17.58;;
77099;SDS011;66602;48.922;2.414;2023-04-30T03:55:01;34.00;;;17.48;;
77099;SDS011;66602;48.922;2.414;2023-04-30T03:57:27;31.27;;;19.05;;
77099;SDS011;66602;48.922;2.414;2023-04-30T03:59:53;35.90;;;19.77;;
77099;SDS011;66602;48.922;2.414;2023-04-30T04:02:18;37.10;;;20.63;;
77099;SDS011;66602;48.922;2.414;2023-04-30T04:04:45;32.97;;;18.83;;
77099;SDS011;66602;48.922;2.414;2023-04-30T04:07:11;42.22;;;19.48;;
77099;SDS011;66602;48.922;2.414;2023-04-30T04:09:37;38.80;;;20.60;;
77099;SDS011;66602;48.922;2.414;2023-04-30T04:12:02;44.72;;;22.52;;
77099;SDS011;66602;48.922;2.414;2023-04-30T04:14:28;40.00;;;20.50;;
77099;SDS011;66602;48.922;2.414;2023-04-30T04:16:53;48.40;;;23.45;;
77099;SDS011;66602;48.922;2.414;2023-04-30T04:19:19;35.65;;;18.83;;
77099;SDS011;66602;48.922;2.414;2023-04-30T04:21:44;46.63;;;22.75;;
77099;SDS011;66602;48.922;2.414;2023-04-30T04:24:10;50.45;;;22.20;;
77099;SDS011;66602;48.922;2.414;2023-04-30T04:26:36;61.22;;;23.77;;
77099;SDS011;66602;48.922;2.414;2023-04-30T04:29:02;63.63;;;26.10;;
77099;SDS011;66602;48.922;2.414;2023-04-30T04:31:29;48.28;;;22.33;;
77099;SDS011;66602;48.922;2.414;2023-04-30T04:33:55;48.67;;;22.40;;
77099;SDS011;66602;48.922;2.414;2023-04-30T04:36:24;49.40;;;22.98;;
77099;SDS011;66602;48.922;2.414;2023-04-30T04:38:55;55.67;;;24.88;;
77099;SDS011;66602;48.922;2.414;2023-04-30T04:41:27;46.97;;;23.73;;
77099;SDS011;66602;48.922;2.414;2023-04-30T04:43:53;46.35;;;21.70;;
77099;SDS011;66602;48.922;2.414;2023-04-30T04:46:20;49.15;;;23.13;;
77099;SDS011;66602;48.922;2.414;2023-04-30T04:48:46;59.10;;;24.25;;
77099;SDS011;66602;48.922;2.414;2023-04-30T04:51:12;46.78;;;22.88;;
77099;SDS011;66602;48.922;2.414;2023-04-30T04:53:37;44.42;;;22.75;;
77099;SDS011;66602;48.922;2.414;2023-04-30T04:56:03;55.63;;;24.85;;
77099;SDS011;66602;48.922;2.414;2023-04-30T04:58:29;53.20;;;26.08;;
77099;SDS011;66602;48.922;2.414;2023-04-30T05:00:55;50.75;;;24.02;;
77099;SDS011;66602;48.922;2.414;2023-04-30T05:03:21;44.67;;;22.85;;
77099;SDS011;66602;48.922;2.414;2023-04-30T05:05:47;45.92;;;22.55;;
77099;SDS011;66602;48.922;2.414;2023-04-30T05:08:12;46.95;;;24.52;;
77099;SDS011;66602;48.922;2.414;2023-04-30T05:10:38;53.97;;;24.77;;
77099;SDS011;66602;48.922;2.414;2023-04-30T05:13:03;49.50;;;24.20;;
77099;SDS011;66602;48.922;2.414;2023-04-30T05:15:28;47.05;;;23.73;;
77099;SDS011;66602;48.922;2.414;2023-04-30T05:17:55;46.30;;;24.20;;
77099;SDS011;66602;48.922;2.414;2023-04-30T05:20:20;40.60;;;23.42;;
77099;SDS011;66602;48.922;2.414;2023-04-30T05:22:46;40.97;;;23.70;;
77099;SDS011;66602;48.922;2.414;2023-04-30T05:25:12;41.45;;;23.13;;
77099;SDS011;66602;48.922;2.414;2023-04-30T05:27:37;53.65;;;23.17;;
77099;SDS011;66602;48.922;2.414;2023-04-30T05:30:03;39.53;;;21.15;;
77099;SDS011;66602;48.922;2.414;2023-04-30T05:32:29;45.47;;;23.02;;
77099;SDS011;66602;48.922;2.414;2023-04-30T05:34:55;39.17;;;21.77;;
77099;SDS011;66602;48.922;2.414;2023-04-30T05:37:20;33.67;;;20.63;;
77099;SDS011;66602;48.922;2.414;2023-04-30T05:39:47;40.13;;;22.17;;
77099;SDS011;66602;48.922;2.414;2023-04-30T05:42:13;35.22;;;20.67;;
77099;SDS011;66602;48.922;2.414;2023-04-30T05:44:39;35.35;;;22.02;;
77099;SDS011;66602;48.922;2.414;2023-04-30T05:47:05;36.65;;;22.42;;
77099;SDS011;66602;48.922;2.414;2023-04-30T05:49:31;31.50;;;20.08;;
77099;SDS011;66602;48.922;2.414;2023-04-30T05:51:56;43.22;;;22.58;;
77099;SDS011;66602;48.922;2.414;2023-04-30T05:54:22;32.15;;;20.80;;
77099;SDS011;66602;48.922;2.414;2023-04-30T05:56:47;32.67;;;21.67;;
77099;SDS011;66602;48.922;2.414;2023-04-30T05:59:13;31.92;;;20.65;;
77099;SDS011;66602;48.922;2.414;2023-04-30T06:01:39;32.63;;;21.80;;
77099;SDS011;66602;48.922;2.414;2023-04-30T06:04:06;34.25;;;21.35;;
77099;SDS011;66602;48.922;2.414;2023-04-30T06:06:33;33.65;;;20.05;;
77099;SDS011;66602;48.922;2.414;2023-04-30T06:08:58;32.45;;;20.27;;
77099;SDS011;66602;48.922;2.414;2023-04-30T06:11:24;29.27;;;20.08;;
77099;SDS011;66602;48.922;2.414;2023-04-30T06:13:50;26.38;;;19.88;;
77099;SDS011;66602;48.922;2.414;2023-04-30T06:16:15;26.95;;;19.13;;
77099;SDS011;66602;48.922;2.414;2023-04-30T06:18:41;31.42;;;19.98;;
77099;SDS011;66602;48.922;2.414;2023-04-30T06:21:06;30.02;;;19.17;;
77099;SDS011;66602;48.922;2.414;2023-04-30T06:23:32;26.13;;;18.58;;
77099;SDS011;66602;48.922;2.414;2023-04-30T06:25:58;29.25;;;19.15;;
77099;SDS011;66602;48.922;2.414;2023-04-30T06:28:23;28.85;;;19.05;;
77099;SDS011;66602;48.922;2.414;2023-04-30T06:30:49;27.77;;;18.30;;
77099;SDS011;66602;48.922;2.414;2023-04-30T06:33:15;23.90;;;18.58;;
77099;SDS011;66602;48.922;2.414;2023-04-30T06:35:41;26.55;;;19.08;;
77099;SDS011;66602;48.922;2.414;2023-04-30T06:38:07;24.35;;;18.38;;
77099;SDS011;66602;48.922;2.414;2023-04-30T06:40:32;26.85;;;18.45;;
77099;SDS011;66602;48.922;2.414;2023-04-30T06:42:58;27.67;;;18.48;;
77099;SDS011;66602;48.922;2.414;2023-04-30T06:45:24;20.80;;;17.73;;
77099;SDS011;66602;48.922;2.414;2023-04-30T06:47:49;25.50;;;18.15;;
77099;SDS011;66602;48.922;2.414;2023-04-30T06:50:15;27.60;;;19.42;;
77099;SDS011;66602;48.922;2.414;2023-04-30T06:52:41;22.75;;;18.40;;
77099;SDS011;66602;48.922;2.414;2023-04-30T06:55:07;20.45;;;17.92;;
77099;SDS011;66602;48.922;2.414;2023-04-30T06:57:33;20.02;;;16.73;;
77099;SDS011;66602;48.922;2.414;2023-04-30T07:00:01;22.48;;;17.05;;
77099;SDS011;66602;48.922;2.414;2023-04-30T07:02:28;24.33;;;17.23;;
77099;SDS011;66602;48.922;2.414;2023-04-30T07:04:53;19.90;;;16.67;;
77099;SDS011;66602;48.922;2.414;2023-04-30T07:07:19;18.88;;;15.88;;
77099;SDS011;66602;48.922;2.414;2023-04-30T07:09:44;25.10;;;16.60;;
77099;SDS011;66602;48.922;2.414;2023-04-30T07:12:10;20.15;;;17.00;;
77099;SDS011;66602;48.922;2.414;2023-04-30T07:14:37;20.15;;;16.20;;
77099;SDS011;66602;48.922;2.414;2023-04-30T07:17:03;18.63;;;15.70;;
77099;SDS011;66602;48.922;2.414;2023-04-30T07:19:28;16.90;;;15.10;;
77099;SDS011;66602;48.922;2.414;2023-04-30T07:21:54;19.42;;;15.65;;
77099;SDS011;66602;48.922;2.414;2023-04-30T07:24:19;18.10;;;15.40;;
77099;SDS011;66602;48.922;2.414;2023-04-30T07:26:45;17.15;;;15.43;;
77099;SDS011;66602;48.922;2.414;2023-04-30T07:29:10;20.33;;;15.95;;
77099;SDS011;66602;48.922;2.414;2023-04-30T07:31:36;19.58;;;15.93;;
77099;SDS011;66602;48.922;2.414;2023-04-30T07:34:02;16.58;;;15.00;;
77099;SDS011;66602;48.922;2.414;2023-04-30T07:36:27;18.17;;;15.25;;
77099;SDS011;66602;48.922;2.414;2023-04-30T07:38:53;20.58;;;15.40;;
77099;SDS011;66602;48.922;2.414;2023-04-30T07:41:18;15.73;;;14.05;;
77099;SDS011;66602;48.922;2.414;2023-04-30T07:43:44;14.95;;;13.55;;
77099;SDS011;66602;48.922;2.414;2023-04-30T07:46:09;18.05;;;14.93;;
77099;SDS011;66602;48.922;2.414;2023-04-30T07:48:35;15.90;;;14.38;;
77099;SDS011;66602;48.922;2.414;2023-04-30T07:51:01;20.60;;;16.15;;
77099;SDS011;66602;48.922;2.414;2023-04-30T07:53:28;18.20;;;14.85;;
77099;SDS011;66602;48.922;2.414;2023-04-30T07:55:54;19.58;;;14.48;;
77099;SDS011;66602;48.922;2.414;2023-04-30T07:58:20;16.27;;;14.65;;
77099;SDS011;66602;48.922;2.414;2023-04-30T08:00:45;14.45;;;13.13;;
77099;SDS011;66602;48.922;2.414;2023-04-30T08:03:11;16.33;;;14.02;;
77099;SDS011;66602;48.922;2.414;2023-04-30T08:05:37;15.35;;;13.95;;
77099;SDS011;66602;48.922;2.414;2023-04-30T08:08:03;13.90;;;12.60;;
77099;SDS011;66602;48.922;2.414;2023-04-30T08:10:29;13.90;;;12.50;;
77099;SDS011;66602;48.922;2.414;2023-04-30T08:12:56;13.10;;;12.00;;
77099;SDS011;66602;48.922;2.414;2023-04-30T08:15:21;14.55;;;13.13;;
77099;SDS011;66602;48.922;2.414;2023-04-30T08:17:50;13.82;;;12.63;;
77099;SDS011;66602;48.922;2.414;2023-04-30T08:20:16;14.07;;;12.70;;
77099;SDS011;66602;48.922;2.414;2023-04-30T08:22:43;13.85;;;12.65;;
77099;SDS011;66602;48.922;2.414;2023-04-30T08:25:09;15.27;;;12.45;;
77099;SDS011;66602;48.922;2.414;2023-04-30T08:27:36;15.90;;;13.32;;
77099;SDS011;66602;48.922;2.414;2023-04-30T08:30:02;12.93;;;11.75;;
77099;SDS011;66602;48.922;2.414;2023-04-30T08:32:28;20.42;;;15.02;;
77099;SDS011;66602;48.922;2.414;2023-04-30T08:34:54;15.88;;;14.23;;
77099;SDS011;66602;48.922;2.414;2023-04-30T08:37:20;13.85;;;12.23;;
77099;SDS011;66602;48.922;2.414;2023-04-30T08:39:45;19.40;;;14.00;;
77099;SDS011;66602;48.922;2.414;2023-04-30T08:42:12;27.77;;;14.63;;
77099;SDS011;66602;48.922;2.414;2023-04-30T08:44:39;23.13;;;14.23;;
77099;SDS011;66602;48.922;2.414;2023-04-30T08:47:07;14.10;;;12.90;;
77099;SDS011;66602;48.922;2.414;2023-04-30T08:49:37;13.77;;;12.68;;
77099;SDS011;66602;48.922;2.414;2023-04-30T08:52:03;14.20;;;12.50;;
77099;SDS011;66602;48.922;2.414;2023-04-30T08:54:31;12.85;;;11.23;;
77099;SDS011;66602;48.922;2.414;2023-04-30T08:57:01;12.80;;;11.55;;
77099;SDS011;66602;48.922;2.414;2023-04-30T08:59:28;12.82;;;11.77;;
77099;SDS011;66602;48.922;2.414;2023-04-30T09:01:55;12.85;;;11.90;;
77099;SDS011;66602;48.922;2.414;2023-04-30T09:04:20;13.13;;;12.00;;
77099;SDS011;66602;48.922;2.414;2023-04-30T09:06:46;13.50;;;12.40;;
77099;SDS011;66602;48.922;2.414;2023-04-30T09:09:13;13.52;;;12.20;;
77099;SDS011;66602;48.922;2.414;2023-04-30T09:11:39;13.57;;;12.40;;
77099;SDS011;66602;48.922;2.414;2023-04-30T09:14:06;13.45;;;12.35;;
77099;SDS011;66602;48.922;2.414;2023-04-30T09:16:45;13.85;;;12.65;;
77099;SDS011;66602;48.922;2.414;2023-04-30T09:19:23;12.63;;;11.48;;
77099;SDS011;66602;48.922;2.414;2023-04-30T09:21:54;12.88;;;11.93;;
77099;SDS011;66602;48.922;2.414;2023-04-30T09:24:20;12.93;;;12.07;;
77099;SDS011;66602;48.922;2.414;2023-04-30T09:26:46;13.73;;;12.70;;
77099;SDS011;66602;48.922;2.414;2023-04-30T09:29:12;12.80;;;11.65;;
77099;SDS011;66602;48.922;2.414;2023-04-30T09:31:38;13.65;;;12.63;;
77099;SDS011;66602;48.922;2.414;2023-04-30T09:34:06;13.13;;;12.13;;
77099;SDS011;66602;48.922;2.414;2023-04-30T09:36:32;13.90;;;12.77;;
77099;SDS011;66602;48.922;2.414;2023-04-30T09:39:08;11.80;;;10.82;;
77099;SDS011;66602;48.922;2.414;2023-04-30T09:41:41;10.73;;;9.95;;
77099;SDS011;66602;48.922;2.414;2023-04-30T09:44:07;12.27;;;11.35;;
77099;SDS011;66602;48.922;2.414;2023-04-30T09:46:33;10.40;;;9.70;;
77099;SDS011;66602;48.922;2.414;2023-04-30T09:49:02;11.38;;;10.52;;
77099;SDS011;66602;48.922;2.414;2023-04-30T09:51:28;10.95;;;9.90;;
77099;SDS011;66602;48.922;2.414;2023-04-30T09:53:55;10.75;;;9.98;;
77099;SDS011;66602;48.922;2.414;2023-04-30T09:56:21;10.10;;;9.20;;
77099;SDS011;66602;48.922;2.414;2023-04-30T09:58:54;9.60;;;9.00;;
77099;SDS011;66602;48.922;2.414;2023-04-30T10:01:21;9.80;;;9.20;;
77099;SDS011;66602;48.922;2.414;2023-04-30T10:03:50;10.73;;;10.05;;
77099;SDS011;66602;48.922;2.414;2023-04-30T10:06:17;9.95;;;9.05;;
77099;SDS011;66602;48.922;2.414;2023-04-30T10:08:48;11.95;;;11.00;;
77099;SDS011;66602;48.922;2.414;2023-04-30T10:11:18;9.20;;;8.35;;
77099;SDS011;66602;48.922;2.414;2023-04-30T10:19:24;9.80;;;9.02;;
77099;SDS011;66602;48.922;2.414;2023-04-30T10:21:54;8.80;;;8.10;;
77099;SDS011;66602;48.922;2.414;2023-04-30T10:24:20;13.00;;;12.00;;
77099;SDS011;66602;48.922;2.414;2023-04-30T10:26:46;11.93;;;11.00;;
77099;SDS011;66602;48.922;2.414;2023-04-30T10:29:13;12.98;;;11.90;;
77099;SDS011;66602;48.922;2.414;2023-04-30T10:31:44;11.23;;;10.50;;
77099;SDS011;66602;48.922;2.414;2023-04-30T10:37:08;7.55;;;7.03;;
77099;SDS011;66602;48.922;2.414;2023-04-30T10:39:42;7.88;;;7.25;;
77099;SDS011;66602;48.922;2.414;2023-04-30T10:42:08;8.25;;;7.75;;
77099;SDS011;66602;48.922;2.414;2023-04-30T10:44:38;8.07;;;7.38;;
77099;SDS011;66602;48.922;2.414;2023-04-30T10:47:04;8.60;;;7.93;;
77099;SDS011;66602;48.922;2.414;2023-04-30T10:49:30;8.75;;;8.07;;
77099;SDS011;66602;48.922;2.414;2023-04-30T10:52:00;6.70;;;6.18;;
77099;SDS011;66602;48.922;2.414;2023-04-30T10:54:30;6.03;;;5.45;;
77099;SDS011;66602;48.922;2.414;2023-04-30T11:02:38;7.07;;;6.45;;
77099;SDS011;66602;48.922;2.414;2023-04-30T11:05:13;7.28;;;6.88;;
77099;SDS011;66602;48.922;2.414;2023-04-30T11:07:55;10.88;;;9.85;;
77099;SDS011;66602;48.922;2.414;2023-04-30T11:10:22;21.85;;;18.80;;
77099;SDS011;66602;48.922;2.414;2023-04-30T11:12:51;8.73;;;8.13;;
77099;SDS011;66602;48.922;2.414;2023-04-30T11:15:18;5.82;;;5.53;;
77099;SDS011;66602;48.922;2.414;2023-04-30T11:17:46;9.85;;;9.05;;
77099;SDS011;66602;48.922;2.414;2023-04-30T11:20:13;6.93;;;6.40;;
77099;SDS011;66602;48.922;2.414;2023-04-30T11:22:43;5.65;;;5.18;;
77099;SDS011;66602;48.922;2.414;2023-04-30T11:25:12;6.95;;;6.25;;
77099;SDS011;66602;48.922;2.414;2023-04-30T11:27:43;5.97;;;5.38;;
77099;SDS011;66602;48.922;2.414;2023-04-30T11:30:13;7.18;;;6.78;;
77099;SDS011;66602;48.922;2.414;2023-04-30T11:32:42;5.80;;;5.40;;
77099;SDS011;66602;48.922;2.414;2023-04-30T11:35:11;4.95;;;4.65;;
77099;SDS011;66602;48.922;2.414;2023-04-30T11:37:38;3.80;;;3.50;;
77099;SDS011;66602;48.922;2.414;2023-04-30T11:40:12;4.97;;;4.68;;
77099;SDS011;66602;48.922;2.414;2023-04-30T11:42:39;4.78;;;4.43;;
77099;SDS011;66602;48.922;2.414;2023-04-30T11:50:10;4.95;;;4.65;;
77099;SDS011;66602;48.922;2.414;2023-04-30T11:52:40;4.25;;;4.05;;
77099;SDS011;66602;48.922;2.414;2023-04-30T11:55:13;4.35;;;4.10;;
77099;SDS011;66602;48.922;2.414;2023-04-30T11:57:41;4.57;;;4.28;;
77099;SDS011;66602;48.922;2.414;2023-04-30T12:00:14;4.65;;;4.35;;
77099;SDS011;66602;48.922;2.414;2023-04-30T12:02:45;4.25;;;4.05;;
77099;SDS011;66602;48.922;2.414;2023-04-30T12:05:30;4.55;;;4.25;;
77099;SDS011;66602;48.922;2.414;2023-04-30T12:07:58;4.35;;;4.15;;
77099;SDS011;66602;48.922;2.414;2023-04-30T12:10:25;4.68;;;4.32;;
77099;SDS011;66602;48.922;2.414;2023-04-30T12:12:51;4.72;;;4.40;;
77099;SDS011;66602;48.922;2.414;2023-04-30T12:15:22;4.25;;;4.05;;
77099;SDS011;66602;48.922;2.414;2023-04-30T12:17:56;4.18;;;3.95;;
77099;SDS011;66602;48.922;2.414;2023-04-30T12:20:27;4.70;;;4.40;;
77099;SDS011;66602;48.922;2.414;2023-04-30T12:22:55;6.30;;;5.80;;
77099;SDS011;66602;48.922;2.414;2023-04-30T12:25:22;5.22;;;4.82;;
77099;SDS011;66602;48.922;2.414;2023-04-30T12:27:49;5.80;;;5.25;;
77099;SDS011;66602;48.922;2.414;2023-04-30T12:30:20;5.35;;;5.05;;
77099;SDS011;66602;48.922;2.414;2023-04-30T12:32:49;4.07;;;3.88;;
77099;SDS011;66602;48.922;2.414;2023-04-30T12:35:16;4.30;;;4.00;;
77099;SDS011;66602;48.922;2.414;2023-04-30T12:37:44;4.60;;;4.38;;
77099;SDS011;66602;48.922;2.414;2023-04-30T12:40:12;6.57;;;5.47;;
77099;SDS011;66602;48.922;2.414;2023-04-30T12:42:39;4.25;;;4.05;;
77099;SDS011;66602;48.922;2.414;2023-04-30T12:45:09;4.18;;;3.95;;
77099;SDS011;66602;48.922;2.414;2023-04-30T12:47:39;4.20;;;4.00;;
77099;SDS011;66602;48.922;2.414;2023-04-30T12:50:09;4.07;;;3.88;;
77099;SDS011;66602;48.922;2.414;2023-04-30T12:52:38;4.30;;;4.10;;
77099;SDS011;66602;48.922;2.414;2023-04-30T12:55:14;3.88;;;3.67;;
77099;SDS011;66602;48.922;2.414;2023-04-30T12:57:40;3.92;;;3.55;;
77099;SDS011;66602;48.922;2.414;2023-04-30T13:00:06;3.83;;;3.63;;
77099;SDS011;66602;48.922;2.414;2023-04-30T13:02:32;4.55;;;4.20;;
77099;SDS011;66602;48.922;2.414;2023-04-30T13:04:58;4.15;;;3.85;;
77099;SDS011;66602;48.922;2.414;2023-04-30T13:07:23;4.22;;;3.85;;
77099;SDS011;66602;48.922;2.414;2023-04-30T13:09:49;4.20;;;3.90;;
77099;SDS011;66602;48.922;2.414;2023-04-30T13:12:15;4.13;;;3.83;;
77099;SDS011;66602;48.922;2.414;2023-04-30T13:14:40;4.13;;;3.92;;
77099;SDS011;66602;48.922;2.414;2023-04-30T13:17:06;5.53;;;3.58;;
77099;SDS011;66602;48.922;2.414;2023-04-30T13:19:33;4.38;;;3.42;;
77099;SDS011;66602;48.922;2.414;2023-04-30T13:21:59;4.00;;;3.70;;
77099;SDS011;66602;48.922;2.414;2023-04-30T13:24:25;3.88;;;3.67;;
77099;SDS011;66602;48.922;2.414;2023-04-30T13:26:51;3.78;;;3.58;;
77099;SDS011;66602;48.922;2.414;2023-04-30T13:29:17;3.70;;;3.50;;
77099;SDS011;66602;48.922;2.414;2023-04-30T13:31:45;3.50;;;3.33;;
77099;SDS011;66602;48.922;2.414;2023-04-30T13:34:12;4.55;;;4.22;;
77099;SDS011;66602;48.922;2.414;2023-04-30T13:36:39;4.32;;;4.13;;
77099;SDS011;66602;48.922;2.414;2023-04-30T13:39:04;3.60;;;3.30;;
77099;SDS011;66602;48.922;2.414;2023-04-30T13:41:30;4.63;;;4.10;;
77099;SDS011;66602;48.922;2.414;2023-04-30T13:43:56;4.35;;;4.05;;
77099;SDS011;66602;48.922;2.414;2023-04-30T13:46:22;3.88;;;3.67;;
77099;SDS011;66602;48.922;2.414;2023-04-30T13:48:48;3.17;;;3.00;;
77099;SDS011;66602;48.922;2.414;2023-04-30T13:51:15;4.35;;;4.05;;
77099;SDS011;66602;48.922;2.414;2023-04-30T13:53:41;3.92;;;3.72;;
77099;SDS011;66602;48.922;2.414;2023-04-30T13:56:06;3.53;;;3.33;;
77099;SDS011;66602;48.922;2.414;2023-04-30T13:58:32;4.10;;;3.08;;
77099;SDS011;66602;48.922;2.414;2023-04-30T14:00:58;3.63;;;3.42;;
77099;SDS011;66602;48.922;2.414;2023-04-30T14:03:24;3.70;;;3.40;;
77099;SDS011;66602;48.922;2.414;2023-04-30T14:05:50;3.53;;;3.22;;
77099;SDS011;66602;48.922;2.414;2023-04-30T14:08:16;3.20;;;3.00;;
77099;SDS011;66602;48.922;2.414;2023-04-30T14:10:41;2.70;;;2.60;;
77099;SDS011;66602;48.922;2.414;2023-04-30T14:13:07;2.60;;;2.50;;
77099;SDS011;66602;48.922;2.414;2023-04-30T14:15:33;3.55;;;3.35;;
77099;SDS011;66602;48.922;2.414;2023-04-30T14:17:59;5.10;;;4.60;;
77099;SDS011;66602;48.922;2.414;2023-04-30T14:20:25;4.55;;;4.00;;
77099;SDS011;66602;48.922;2.414;2023-04-30T14:22:51;5.18;;;4.78;;
77099;SDS011;66602;48.922;2.414;2023-04-30T14:25:17;4.45;;;4.13;;
77099;SDS011;66602;48.922;2.414;2023-04-30T14:27:43;4.75;;;3.95;;
77099;SDS011;66602;48.922;2.414;2023-04-30T14:30:09;5.30;;;4.80;;
77099;SDS011;66602;48.922;2.414;2023-04-30T14:32:36;3.15;;;2.95;;
77099;SDS011;66602;48.922;2.414;2023-04-30T14:35:02;3.88;;;3.67;;
77099;SDS011;66602;48.922;2.414;2023-04-30T14:37:29;4.03;;;3.58;;
77099;SDS011;66602;48.922;2.414;2023-04-30T14:39:54;3.47;;;3.17;;
77099;SDS011;66602;48.922;2.414;2023-04-30T14:42:20;3.95;;;3.65;;
77099;SDS011;66602;48.922;2.414;2023-04-30T14:44:46;3.05;;;2.85;;
77099;SDS011;66602;48.922;2.414;2023-04-30T14:47:12;2.80;;;2.60;;
77099;SDS011;66602;48.922;2.414;2023-04-30T14:49:38;2.90;;;2.70;;
77099;SDS011;66602;48.922;2.414;2023-04-30T14:52:04;3.45;;;3.25;;
77099;SDS011;66602;48.922;2.414;2023-04-30T14:54:30;2.47;;;2.38;;
77099;SDS011;66602;48.922;2.414;2023-04-30T14:56:55;2.83;;;2.50;;
77099;SDS011;66602;48.922;2.414;2023-04-30T14:59:22;2.60;;;2.40;;
77099;SDS011;66602;48.922;2.414;2023-04-30T15:01:48;2.50;;;2.40;;
77099;SDS011;66602;48.922;2.414;2023-04-30T15:04:14;2.40;;;2.22;;
77099;SDS011;66602;48.922;2.414;2023-04-30T15:06:40;2.40;;;2.20;;
77099;SDS011;66602;48.922;2.414;2023-04-30T15:09:06;2.55;;;2.35;;
77099;SDS011;66602;48.922;2.414;2023-04-30T15:11:31;2.92;;;2.67;;